Time;durP1;ratioP1;P1;durP2;ratioP2;P2;SDS_P1;SDS_P2;PMS_P1;PMS_P2;Temp;Humidity;BMP_temperature;BMP_pressure;BME280_temperature;BME280_humidity;BME280_pressure;Samples;Min_cycle;Max_cycle;Signal;HPM_P1;HPM_P2
2022/10/11 00:02:16;;;;;;;9.48;4.20;;;;;;;12.73;81.01;100826.45;1666204;84;21115;-76
2022/10/11 00:04:43;;;;;;;9.10;4.70;;;;;;;12.77;80.88;100831.58;1678314;84;21535;-75
2022/10/11 00:07:11;;;;;;;7.40;4.22;;;;;;;12.79;80.84;100831.07;1666230;84;21482;-75
2022/10/11 00:09:38;;;;;;;8.23;3.77;;;;;;;12.83;80.85;100830.02;1678401;84;21074;-75
2022/10/11 00:12:05;;;;;;;6.97;4.72;;;;;;;12.86;80.66;100839.13;1666185;84;21083;-75
2022/10/11 00:14:33;;;;;;;10.43;4.55;;;;;;;12.85;80.51;100842.20;1678389;84;21501;-75
2022/10/11 00:17:00;;;;;;;9.83;4.17;;;;;;;12.86;80.47;100852.28;1678798;84;21046;-74
2022/10/11 00:19:27;;;;;;;7.50;4.33;;;;;;;12.85;80.35;100849.23;1705530;84;21033;-75
2022/10/11 00:21:54;;;;;;;7.15;4.58;;;;;;;12.84;80.29;100851.48;1692736;84;21028;-75
2022/10/11 00:24:21;;;;;;;8.35;4.60;;;;;;;12.84;80.27;100847.53;1705622;84;20986;-75
2022/10/11 00:26:48;;;;;;;9.40;4.83;;;;;;;12.83;80.25;100851.95;1692720;84;21995;-75
2022/10/11 00:29:15;;;;;;;9.98;4.42;;;;;;;12.81;80.14;100847.20;1697876;84;21046;-75
2022/10/11 00:31:42;;;;;;;11.75;6.15;;;;;;;12.78;80.17;100852.58;1665820;84;21054;-76
2022/10/11 00:34:10;;;;;;;10.80;5.08;;;;;;;12.77;80.05;100865.31;1655912;85;21014;-75
2022/10/11 00:36:38;;;;;;;12.47;7.35;;;;;;;12.73;80.07;100869.84;1667475;84;21034;-75
2022/10/11 00:39:04;;;;;;;13.00;6.15;;;;;;;12.67;79.78;100868.77;1655760;85;21314;-75
2022/10/11 00:41:32;;;;;;;11.10;6.40;;;;;;;12.62;79.89;100876.44;1685906;84;21599;-75
2022/10/11 00:44:19;;;;;;;10.30;6.15;;;;;;;12.59;80.02;100873.47;1681983;85;21014;-75
2022/10/11 00:47:00;;;;;;;8.53;4.42;;;;;;;12.55;80.00;100885.00;1642415;87;21115;-75
2022/10/11 00:49:37;;;;;;;9.48;4.90;;;;;;;12.52;80.20;100881.63;1642427;87;21194;-74
2022/10/11 00:52:17;;;;;;;10.75;5.25;;;;;;;12.49;80.24;100878.66;1642491;87;21389;-75
2022/10/11 00:54:46;;;;;;;8.95;4.12;;;;;;;12.47;80.35;100883.11;1642269;87;21183;-75
2022/10/11 00:57:18;;;;;;;9.88;4.35;;;;;;;12.46;80.58;100884.03;1642481;87;21064;-75
2022/10/11 00:59:51;;;;;;;7.47;4.28;;;;;;;12.46;80.59;100891.45;1642336;87;21067;-75
2022/10/11 01:02:18;;;;;;;10.13;4.47;;;;;;;12.46;80.65;100891.92;1642426;87;21059;-75
2022/10/11 01:04:46;;;;;;;14.38;5.65;;;;;;;12.45;80.64;100901.59;1642349;87;21332;-75
2022/10/11 01:07:13;;;;;;;10.10;4.67;;;;;;;12.44;80.78;100906.89;1642340;87;21534;-75
2022/10/11 01:09:40;;;;;;;10.63;4.58;;;;;;;12.44;80.79;100912.14;1642410;87;21055;-75
2022/10/11 01:12:18;;;;;;;7.72;4.58;;;;;;;12.44;80.75;100909.52;1642427;87;21036;-75
2022/10/11 01:15:19;;;;;;;7.10;4.72;;;;;;;12.42;80.84;100912.22;1642654;87;22243;-75
2022/10/11 01:18:01;;;;;;;8.58;5.20;;;;;;;12.42;80.78;100913.99;1642452;87;21103;-74
2022/10/11 01:20:51;;;;;;;10.23;4.65;;;;;;;12.39;80.87;100920.22;1642493;87;21079;-75
2022/10/11 01:23:57;;;;;;;12.45;4.72;;;;;;;12.38;80.91;100920.26;1681137;84;21476;-75
2022/10/11 01:26:35;;;;;;;11.05;4.72;;;;;;;12.36;80.91;100920.34;1694466;84;21011;-75
2022/10/11 01:29:26;;;;;;;9.25;5.03;;;;;;;12.35;81.04;100925.63;1676362;85;21066;-75
2022/10/11 01:32:17;;;;;;;7.47;4.47;;;;;;;12.37;81.20;100922.03;1666390;84;21153;-75
2022/10/11 01:35:14;;;;;;;7.70;4.40;;;;;;;12.37;81.24;100925.98;1678341;84;21526;-74
2022/10/11 01:37:49;;;;;;;10.32;4.37;;;;;;;12.37;81.20;100929.92;1713782;83;20943;-75
2022/10/11 01:40:30;;;;;;;11.08;4.80;;;;;;;12.37;81.24;100933.02;1711710;83;21003;-76
2022/10/11 01:42:59;;;;;;;12.18;4.72;;;;;;;12.36;81.18;100936.53;1714158;83;20994;-75
2022/10/11 01:45:26;;;;;;;11.65;4.67;;;;;;;12.33;81.15;100940.12;1714116;83;21967;-75
2022/10/11 01:48:09;;;;;;;8.75;4.37;;;;;;;12.32;81.11;100946.77;1713999;83;21010;-75
2022/10/11 01:50:47;;;;;;;10.95;5.37;;;;;;;12.26;81.07;100943.45;1712149;83;20994;-75
2022/10/11 01:53:41;;;;;;;9.10;5.30;;;;;;;12.23;81.12;100944.02;1714185;83;21532;-75
2022/10/11 01:56:34;;;;;;;9.50;5.50;;;;;;;12.18;81.06;100949.42;1703677;83;20999;-76
2022/10/11 01:59:22;;;;;;;10.53;5.30;;;;;;;12.13;81.13;100946.55;1711213;83;22112;-75
2022/10/11 02:02:12;;;;;;;13.20;5.30;;;;;;;12.10;81.25;100947.52;1595906;88;21018;-75
2022/10/11 02:04:57;;;;;;;12.63;5.75;;;;;;;12.03;81.21;100952.14;1612305;87;21599;-75
2022/10/11 02:07:53;;;;;;;8.88;5.47;;;;;;;11.97;81.22;100953.67;1539742;91;21089;-75
2022/10/11 02:10:40;;;;;;;9.38;5.30;;;;;;;11.91;81.36;100949.05;1512419;94;21583;-75
2022/10/11 02:13:24;;;;;;;8.50;4.97;;;;;;;11.87;81.49;100950.09;1552565;92;21948;-75
2022/10/11 02:15:53;;;;;;;8.73;5.40;;;;;;;11.84;81.66;100953.64;1552071;92;21352;-75
2022/10/11 02:18:27;;;;;;;9.70;5.47;;;;;;;11.80;81.68;100954.17;1527109;94;21595;-75
2022/10/11 02:20:56;;;;;;;9.18;5.58;;;;;;;11.75;81.79;100953.49;1552573;92;21088;-75
2022/10/11 02:23:28;;;;;;;9.53;5.45;;;;;;;11.72;81.87;100956.22;1573163;91;21069;-75
2022/10/11 02:25:56;;;;;;;9.73;5.40;;;;;;;11.67;81.79;100963.39;1558368;91;21128;-75
2022/10/11 02:28:29;;;;;;;9.13;5.80;;;;;;;11.62;81.98;100971.86;1551866;92;21579;-75
2022/10/11 02:30:59;;;;;;;10.78;5.92;;;;;;;11.58;82.01;100975.05;1527393;94;21078;-75
2022/10/11 02:33:34;;;;;;;10.03;5.50;;;;;;;11.54;82.05;100977.81;1521192;94;21066;-74
2022/10/11 02:36:07;;;;;;;10.38;6.28;;;;;;;11.49;82.13;100975.32;1540252;93;21047;-75
2022/10/11 02:38:40;;;;;;;10.20;5.67;;;;;;;11.44;82.27;100985.10;1530623;91;21183;-75
2022/10/11 02:41:24;;;;;;;10.53;5.87;;;;;;;11.39;82.34;100984.41;1586377;90;21540;-75
2022/10/11 02:44:00;;;;;;;9.63;4.93;;;;;;;11.35;82.49;100988.02;1605736;86;21008;-75
2022/10/11 02:46:29;;;;;;;9.75;5.35;;;;;;;11.32;82.56;100998.16;1669363;85;21489;-75
2022/10/11 02:48:58;;;;;;;10.63;5.28;;;;;;;11.29;82.67;100990.84;1669359;86;21034;-75
2022/10/11 02:51:32;;;;;;;9.48;5.25;;;;;;;11.24;82.66;100997.53;1669026;86;22090;-75
2022/10/11 02:53:59;;;;;;;9.98;5.08;;;;;;;11.22;82.81;100998.48;1669086;85;21015;-75
2022/10/11 02:56:27;;;;;;;13.40;5.53;;;;;;;11.19;82.94;101001.20;1669105;86;21011;-75
2022/10/11 02:58:54;;;;;;;9.10;5.20;;;;;;;11.16;82.88;101008.70;1669121;85;21095;-75
2022/10/11 03:01:21;;;;;;;11.83;5.65;;;;;;;11.12;82.98;101011.03;1669347;86;21011;-75
2022/10/11 03:03:48;;;;;;;11.50;6.17;;;;;;;11.09;83.21;101015.06;1669198;85;21137;-75
2022/10/11 03:06:15;;;;;;;9.35;5.37;;;;;;;11.07;83.32;101022.11;1669360;85;21094;-75
2022/10/11 03:08:42;;;;;;;9.78;5.28;;;;;;;11.06;83.42;101025.64;1669298;85;21095;-75
2022/10/11 03:11:10;;;;;;;7.90;5.25;;;;;;;11.04;83.53;101033.55;1669361;86;22105;-75
2022/10/11 03:13:37;;;;;;;10.15;6.20;;;;;;;11.05;83.71;101037.02;1669271;86;21035;-75
2022/10/11 03:16:04;;;;;;;9.13;6.10;;;;;;;11.06;83.82;101046.63;1669442;85;21937;-75
2022/10/11 03:18:31;;;;;;;9.75;5.58;;;;;;;11.03;83.69;101051.94;1669103;85;21010;-75
2022/10/11 03:20:59;;;;;;;13.05;6.03;;;;;;;11.01;83.76;101056.39;1669063;86;21011;-75
2022/10/11 03:23:26;;;;;;;10.82;6.37;;;;;;;10.96;83.68;101060.45;1669159;86;21078;-75
2022/10/11 03:25:53;;;;;;;10.27;5.67;;;;;;;10.92;83.81;101063.61;1669506;86;21027;-75
2022/10/11 03:28:20;;;;;;;12.05;6.55;;;;;;;10.90;83.92;101066.72;1669141;86;21129;-75
2022/10/11 03:30:50;;;;;;;11.78;6.17;;;;;;;10.87;83.81;101064.19;1669028;86;22063;-75
2022/10/11 03:33:18;;;;;;;8.03;5.45;;;;;;;10.81;84.43;101072.66;1669313;85;27761;-75
2022/10/11 03:35:47;;;;;;;10.10;6.17;;;;;;;10.81;84.43;101072.66;1669219;85;21531;-75
2022/10/11 03:38:19;;;;;;;15.03;6.40;;;;;;;10.82;84.39;101081.80;1669219;85;21030;-75
2022/10/11 03:40:46;;;;;;;10.37;6.60;;;;;;;10.82;84.44;101079.64;1724946;82;21131;-74
2022/10/11 03:43:13;;;;;;;8.75;6.15;;;;;;;10.82;84.53;101086.20;1725607;83;21047;-75
2022/10/11 03:45:41;;;;;;;10.47;7.20;;;;;;;10.82;84.68;101084.89;1725448;83;21034;-74
2022/10/11 03:48:09;;;;;;;9.10;6.30;;;;;;;10.81;84.68;101083.14;1725776;82;21078;-75
2022/10/11 03:50:36;;;;;;;10.55;5.87;;;;;;;10.81;84.80;101084.45;1725551;83;21071;-75
2022/10/11 03:53:06;;;;;;;13.97;6.80;;;;;;;10.81;84.87;101089.70;1725698;82;21220;-75
2022/10/11 03:55:33;;;;;;;10.82;6.75;;;;;;;10.81;84.92;101088.39;1725405;82;21518;-75
2022/10/11 03:58:00;;;;;;;11.53;6.67;;;;;;;10.81;85.03;101091.02;1725792;83;21043;-75
2022/10/11 04:00:27;;;;;;;8.00;6.17;;;;;;;10.82;85.18;101094.06;1725495;82;21007;-75
2022/10/11 04:02:54;;;;;;;11.73;6.78;;;;;;;10.85;85.42;101097.45;1725815;82;21035;-75
2022/10/11 04:05:21;;;;;;;9.28;6.00;;;;;;;10.88;85.40;101105.23;1725565;82;21179;-75
2022/10/11 04:07:48;;;;;;;12.88;6.10;;;;;;;10.89;85.23;101107.41;1725756;82;21088;-75
2022/10/11 04:10:16;;;;;;;10.30;5.97;;;;;;;10.86;85.16;101108.37;1725504;82;21015;-75
2022/10/11 04:12:43;;;;;;;10.58;6.15;;;;;;;10.83;85.02;101113.67;1725773;82;21066;-75
2022/10/11 04:15:13;;;;;;;10.60;6.33;;;;;;;10.79;85.12;101120.38;1725561;83;21038;-75
2022/10/11 04:17:41;;;;;;;8.73;6.05;;;;;;;10.75;85.12;101118.72;1725975;83;21080;-75
2022/10/11 04:20:09;;;;;;;11.57;6.13;;;;;;;10.70;85.09;101127.58;1725372;82;21034;-74
2022/10/11 04:22:37;;;;;;;12.87;6.40;;;;;;;10.66;85.02;101130.30;1726014;82;21536;-75
2022/10/11 04:25:06;;;;;;;9.90;6.17;;;;;;;10.58;84.95;101125.25;1725627;82;21436;-75
2022/10/11 04:27:33;;;;;;;9.95;6.33;;;;;;;10.49;85.07;101128.97;1725769;83;21452;-75
2022/10/11 04:30:01;;;;;;;9.83;6.90;;;;;;;10.44;85.26;101130.84;1725449;82;21080;-75
2022/10/11 04:32:28;;;;;;;11.30;6.77;;;;;;;10.38;85.20;101129.69;1725343;83;21517;-75
2022/10/11 04:34:55;;;;;;;11.03;6.87;;;;;;;10.32;85.35;101136.85;1725560;82;21022;-75
2022/10/11 04:37:22;;;;;;;9.30;5.93;;;;;;;10.26;85.43;101139.14;1725397;83;21038;-75
2022/10/11 04:39:49;;;;;;;10.57;6.53;;;;;;;10.21;85.54;101139.69;1725556;83;20995;-75
2022/10/11 04:42:17;;;;;;;16.00;6.83;;;;;;;10.17;85.75;101137.60;1725489;83;21142;-75
2022/10/11 04:44:44;;;;;;;11.03;6.10;;;;;;;10.15;85.98;101147.70;1725386;82;21022;-75
2022/10/11 04:47:12;;;;;;;8.83;5.73;;;;;;;10.11;86.04;101149.51;1725495;82;21539;-75
2022/10/11 04:49:39;;;;;;;10.87;5.80;;;;;;;10.10;86.14;101149.56;1725618;82;20980;-75
2022/10/11 04:52:06;;;;;;;9.67;5.63;;;;;;;10.07;86.18;101147.02;1725479;82;21104;-75
2022/10/11 04:54:33;;;;;;;11.07;6.00;;;;;;;10.05;86.38;101150.52;1725416;83;21129;-75
2022/10/11 04:57:00;;;;;;;11.70;5.80;;;;;;;10.04;86.49;101154.04;1725342;83;21527;-75
2022/10/11 04:59:27;;;;;;;11.13;5.27;;;;;;;10.04;86.55;101156.66;1725376;82;21007;-75
2022/10/11 05:01:54;;;;;;;8.83;5.10;;;;;;;10.05;86.79;101164.91;1725703;82;21467;-76
2022/10/11 05:04:21;;;;;;;9.40;5.37;;;;;;;10.08;86.94;101171.84;1725442;82;21015;-75
2022/10/11 05:06:48;;;;;;;11.70;5.07;;;;;;;10.11;86.96;101178.77;1725425;83;21100;-75
2022/10/11 05:09:16;;;;;;;11.27;5.47;;;;;;;10.13;86.97;101179.16;1725480;83;21004;-75
2022/10/11 05:11:44;;;;;;;6.97;4.63;;;;;;;10.16;87.08;101184.33;1725475;82;21453;-75
2022/10/11 05:14:11;;;;;;;7.77;4.10;;;;;;;10.19;87.05;101188.17;1725465;82;21050;-76
2022/10/11 05:16:38;;;;;;;9.60;4.53;;;;;;;10.22;86.91;101188.56;1725556;82;21518;-75
2022/10/11 05:19:05;;;;;;;10.70;4.80;;;;;;;10.22;87.01;101198.58;1725515;83;21204;-75
2022/10/11 05:21:32;;;;;;;8.40;4.27;;;;;;;10.23;86.88;101200.33;1725343;82;21026;-76
2022/10/11 05:24:00;;;;;;;10.80;4.27;;;;;;;10.25;86.77;101209.45;1725423;83;21034;-75
2022/10/11 05:26:27;;;;;;;8.83;4.33;;;;;;;10.24;86.76;101215.14;1725417;83;21505;-75
2022/10/11 05:28:55;;;;;;;6.23;3.47;;;;;;;10.23;86.70;101223.91;1725469;83;21367;-75
2022/10/11 05:31:22;;;;;;;8.27;3.70;;;;;;;10.21;86.59;101227.00;1725504;83;21961;-75
2022/10/11 05:33:49;;;;;;;8.93;3.80;;;;;;;10.19;86.39;101230.55;1725518;82;21024;-75
2022/10/11 05:36:16;;;;;;;7.47;3.77;;;;;;;10.13;86.34;101235.48;1725508;82;21086;-75
2022/10/11 05:38:43;;;;;;;10.60;4.20;;;;;;;10.09;86.31;101238.19;1725625;82;21230;-76
2022/10/11 05:41:13;;;;;;;8.93;3.77;;;;;;;10.05;86.34;101242.64;1725499;83;21083;-75
2022/10/11 05:43:40;;;;;;;11.83;3.85;;;;;;;10.01;86.32;101242.30;1721423;82;21109;-72
2022/10/11 05:46:07;;;;;;;8.33;3.87;;;;;;;9.96;86.33;101245.01;1699397;82;22271;-73
2022/10/11 05:48:34;;;;;;;9.37;3.90;;;;;;;9.92;86.26;101255.56;1699790;82;21074;-73
2022/10/11 05:51:04;;;;;;;8.43;4.83;;;;;;;9.88;86.27;101257.84;1699530;82;21026;-75
2022/10/11 05:53:32;;;;;;;11.25;4.42;;;;;;;9.83;86.29;101265.79;1700133;82;22012;-73
2022/10/11 05:55:59;;;;;;;10.07;3.73;;;;;;;9.76;86.28;101269.44;1641812;85;22107;-74
2022/10/11 05:58:27;;;;;;;8.60;3.70;;;;;;;9.71;86.29;101275.20;1670631;84;21406;-76
2022/10/11 06:00:55;;;;;;;7.43;3.57;;;;;;;9.65;86.33;101276.64;1642692;86;21663;-75
2022/10/11 06:03:22;;;;;;;7.97;3.90;;;;;;;9.60;86.43;101286.73;1650885;85;21066;-75
2022/10/11 06:05:49;;;;;;;7.53;3.70;;;;;;;9.58;86.41;101291.58;1651008;85;22148;-74
2022/10/11 06:08:16;;;;;;;9.53;3.67;;;;;;;9.55;86.50;101294.26;1651393;85;21114;-73
2022/10/11 06:10:43;;;;;;;7.13;4.00;;;;;;;9.53;86.61;101297.34;1663788;84;21027;-73
2022/10/11 06:13:11;;;;;;;6.63;3.57;;;;;;;9.53;86.77;101309.11;1700564;83;21615;-76
2022/10/11 06:15:39;;;;;;;7.93;3.80;;;;;;;9.53;86.89;101315.23;1700493;83;21093;-73
2022/10/11 06:18:06;;;;;;;7.87;3.73;;;;;;;9.54;87.01;101312.17;1700990;83;21098;-72
2022/10/11 06:20:33;;;;;;;8.73;4.07;;;;;;;9.57;87.13;101316.03;1700667;83;21584;-73
2022/10/11 06:23:00;;;;;;;7.70;3.47;;;;;;;9.58;87.12;101322.53;1700727;82;21026;-73
2022/10/11 06:25:27;;;;;;;6.63;3.23;;;;;;;9.58;87.22;101327.77;1701026;83;21054;-74
2022/10/11 06:27:54;;;;;;;9.07;3.50;;;;;;;9.61;87.20;101334.25;1700790;83;21042;-73
2022/10/11 06:30:23;;;;;;;9.00;3.60;;;;;;;9.63;87.31;101336.00;1700973;82;21077;-72
2022/10/11 06:32:50;;;;;;;5.50;3.23;;;;;;;9.66;87.27;101351.20;1700609;83;21093;-73
2022/10/11 06:35:17;;;;;;;7.07;3.40;;;;;;;9.69;87.43;101354.20;1647493;85;21065;-74
2022/10/11 06:37:44;;;;;;;8.93;2.60;;;;;;;9.73;87.51;101355.89;1702301;82;20931;-72
2022/10/11 06:40:11;;;;;;;7.53;2.97;;;;;;;9.77;87.40;101358.86;1702713;82;21687;-73
2022/10/11 06:42:39;;;;;;;10.13;3.03;;;;;;;9.80;87.30;101367.97;1702705;82;21046;-72
2022/10/11 06:45:07;;;;;;;6.43;2.67;;;;;;;9.81;87.29;101368.41;1703123;82;21128;-72
2022/10/11 06:47:34;;;;;;;9.70;2.93;;;;;;;9.85;87.31;101371.81;1702924;83;21059;-72
2022/10/11 06:50:01;;;;;;;9.03;2.90;;;;;;;9.87;87.37;101372.21;1702679;82;21532;-73
2022/10/11 06:52:28;;;;;;;6.77;3.17;;;;;;;9.91;87.20;101379.10;1702913;83;21483;-73
2022/10/11 06:54:56;;;;;;;6.60;2.60;;;;;;;9.94;87.16;101381.66;1702306;82;21132;-72
2022/10/11 06:57:23;;;;;;;5.77;2.90;;;;;;;9.98;87.18;101383.34;1702576;83;21135;-72
2022/10/11 06:59:50;;;;;;;7.97;2.77;;;;;;;10.02;87.20;101382.83;1703241;82;21060;-73
2022/10/11 07:02:17;;;;;;;8.60;3.17;;;;;;;10.05;87.22;101386.25;1703235;82;21564;-72
2022/10/11 07:04:44;;;;;;;8.47;3.10;;;;;;;10.11;87.15;101396.20;1702768;82;21091;-71
2022/10/11 07:07:13;;;;;;;7.47;2.93;;;;;;;10.13;87.01;101395.73;1702664;82;21561;-74
2022/10/11 07:09:40;;;;;;;8.17;2.97;;;;;;;10.16;87.02;101399.14;1702445;82;21782;-72
2022/10/11 07:12:08;;;;;;;7.70;3.03;;;;;;;10.21;87.03;101400.38;1702660;82;21620;-73
2022/10/11 07:14:35;;;;;;;7.77;2.37;;;;;;;10.23;86.95;101407.31;1702793;82;21054;-72
2022/10/11 07:17:02;;;;;;;9.20;2.70;;;;;;;10.27;86.98;101406.83;1702506;82;21031;-74
2022/10/11 07:19:29;;;;;;;7.60;2.73;;;;;;;10.32;86.93;101414.61;1702602;82;21036;-73
2022/10/11 07:21:56;;;;;;;7.33;2.57;;;;;;;10.36;86.85;101418.44;1702765;82;21136;-72
2022/10/11 07:24:24;;;;;;;10.03;2.47;;;;;;;10.38;86.82;101417.96;1702691;82;21043;-73
2022/10/11 07:26:51;;;;;;;11.77;3.10;;;;;;;10.45;86.81;101422.20;1703754;82;21481;-73
2022/10/11 07:29:18;;;;;;;8.07;2.37;;;;;;;10.52;86.72;101424.69;1702186;83;21051;-72
2022/10/11 07:31:45;;;;;;;12.07;2.85;;;;;;;10.56;86.58;101429.85;1702301;83;21042;-75
2022/10/11 07:34:12;;;;;;;11.35;2.62;;;;;;;10.60;86.49;101423.63;1704116;82;21187;-73
2022/10/11 07:36:39;;;;;;;7.40;1.90;;;;;;;10.67;86.50;101430.49;1712108;82;21073;-72
2022/10/11 07:39:07;;;;;;;6.85;2.05;;;;;;;10.74;86.48;101427.28;1712455;82;21069;-72
2022/10/11 07:41:35;;;;;;;8.65;2.10;;;;;;;10.81;86.43;101432.82;1712247;82;21041;-72
2022/10/11 07:44:02;;;;;;;9.43;2.55;;;;;;;10.87;86.25;101439.23;1712624;82;21104;-72
2022/10/11 07:46:30;;;;;;;10.75;3.10;;;;;;;10.94;86.20;101441.27;1712279;82;22184;-72
2022/10/11 07:48:57;;;;;;;8.58;2.12;;;;;;;11.02;86.02;101445.89;1712500;82;21057;-73
2022/10/11 07:51:24;;;;;;;8.58;2.15;;;;;;;11.06;85.63;101450.20;1712042;82;21053;-72
2022/10/11 07:53:55;;;;;;;8.58;2.10;;;;;;;11.11;85.50;101442.20;1712223;82;22194;-72
2022/10/11 07:56:27;;;;;;;12.80;2.80;;;;;;;11.16;85.38;101449.52;1712208;82;21586;-71
2022/10/11 07:58:58;;;;;;;7.87;1.60;;;;;;;11.22;85.42;101441.50;1712183;82;21137;-71
2022/10/11 08:01:27;;;;;;;6.37;2.02;;;;;;;11.32;85.33;101450.90;1711824;82;21053;-75
2022/10/11 08:03:55;;;;;;;8.83;2.02;;;;;;;11.38;85.00;101449.44;1712409;82;21053;-72
2022/10/11 08:06:28;;;;;;;8.50;2.02;;;;;;;11.47;84.84;101456.69;1721251;82;21023;-73
2022/10/11 08:08:56;;;;;;;8.25;2.08;;;;;;;11.52;84.72;101458.75;1682200;83;21371;-72
2022/10/11 08:11:30;;;;;;;9.75;1.90;;;;;;;11.53;84.31;101463.98;1681467;83;21499;-72
2022/10/11 08:13:59;;;;;;;7.05;1.72;;;;;;;11.56;84.11;101459.11;1694181;83;21038;-73
2022/10/11 08:16:27;;;;;;;12.80;2.17;;;;;;;11.60;84.10;101465.54;1709742;84;21528;-73
2022/10/11 08:18:55;;;;;;;13.93;2.08;;;;;;;11.68;84.11;101460.11;1709879;84;21031;-73
2022/10/11 08:21:23;;;;;;;11.50;2.12;;;;;;;11.79;84.19;101459.39;1710040;83;21824;-74
2022/10/11 08:23:50;;;;;;;9.38;2.42;;;;;;;11.93;84.10;101459.53;1709863;84;21516;-73
2022/10/11 08:26:17;;;;;;;7.25;1.65;;;;;;;12.09;83.99;101464.80;1710031;83;21026;-73
2022/10/11 08:28:45;;;;;;;11.38;2.15;;;;;;;12.22;83.70;101466.20;1709799;84;21014;-73
2022/10/11 08:31:15;;;;;;;10.35;1.77;;;;;;;12.38;83.27;101459.20;1710119;83;21038;-73
2022/10/11 08:33:43;;;;;;;13.68;1.87;;;;;;;12.48;82.60;101460.68;1710019;84;21026;-73
2022/10/11 08:36:11;;;;;;;8.23;1.70;;;;;;;12.61;82.29;101469.06;1709730;83;21120;-73
2022/10/11 08:38:39;;;;;;;8.90;2.02;;;;;;;12.65;81.70;101466.77;1709708;83;21034;-73
2022/10/11 08:41:41;;;;;;;8.73;2.15;;;;;;;12.68;81.30;101464.05;1709938;83;21035;-73
2022/10/11 08:44:32;;;;;;;5.95;1.72;;;;;;;12.67;80.98;101469.77;1691226;83;21089;-72
2022/10/11 08:47:08;;;;;;;8.98;2.17;;;;;;;12.66;80.28;101464.08;1711149;83;21002;-73
2022/10/11 08:49:36;;;;;;;8.58;1.80;;;;;;;12.78;80.01;101471.24;1709380;83;21155;-73
2022/10/11 08:52:08;;;;;;;6.90;1.85;;;;;;;12.86;79.56;101471.88;1709972;83;21482;-73
2022/10/11 08:54:49;;;;;;;6.10;1.67;;;;;;;12.93;79.34;101470.31;1709201;83;21011;-73
2022/10/11 08:57:24;;;;;;;9.45;1.52;;;;;;;13.04;79.04;101475.72;1710020;83;21110;-73
2022/10/11 09:00:01;;;;;;;7.72;1.87;;;;;;;13.20;79.23;101474.81;1709968;83;22067;-73
2022/10/11 09:02:48;;;;;;;8.68;2.33;;;;;;;13.42;79.04;101477.67;1709710;83;21929;-73
2022/10/11 09:05:18;;;;;;;14.10;2.20;;;;;;;13.52;78.94;101476.02;1707853;83;21006;-73
2022/10/11 09:08:12;;;;;;;13.85;1.80;;;;;;;13.70;78.51;101497.40;1691828;83;21523;-73
2022/10/11 09:11:05;;;;;;;9.28;2.05;;;;;;;13.73;77.88;101485.44;1706352;83;20994;-76
2022/10/11 09:14:07;;;;;;;12.40;2.08;;;;;;;13.83;77.65;101483.77;1713776;83;21160;-74
2022/10/11 09:17:02;;;;;;;8.55;2.45;;;;;;;14.04;77.47;101486.58;1714140;83;21951;-74
2022/10/11 09:19:37;;;;;;;7.10;1.92;;;;;;;14.13;76.79;101484.94;1667004;83;21521;-75
2022/10/11 09:22:34;;;;;;;9.30;1.75;;;;;;;14.36;76.44;101484.63;1713984;83;21021;-73
2022/10/11 09:25:31;;;;;;;9.43;2.00;;;;;;;14.60;76.38;101485.52;1683228;85;20910;-74
2022/10/11 09:28:22;;;;;;;8.10;1.70;;;;;;;14.84;75.42;101487.73;1696128;84;21003;-74
2022/10/11 09:30:54;;;;;;;8.05;1.75;;;;;;;15.14;74.95;101489.20;1705847;83;21115;-73
2022/10/11 09:33:46;;;;;;;6.03;1.60;;;;;;;15.40;74.44;101495.23;1684628;84;21045;-75
2022/10/11 09:36:22;;;;;;;11.18;2.20;;;;;;;15.52;73.38;101493.88;1682718;84;21104;-74
2022/10/11 09:39:32;;;;;;;9.03;1.70;;;;;;;15.36;72.07;101495.83;1683314;84;21035;-77
2022/10/11 09:42:06;;;;;;;9.35;1.70;;;;;;;15.23;71.59;101496.37;1684982;84;21030;-75
2022/10/11 09:44:42;;;;;;;11.03;2.10;;;;;;;15.12;71.15;101492.35;1682776;84;21152;-73
2022/10/11 09:47:17;;;;;;;5.87;1.37;;;;;;;14.96;70.35;101493.86;1675445;84;20999;-73
2022/10/11 09:49:52;;;;;;;6.87;1.17;;;;;;;14.88;69.91;101492.84;1681169;84;21499;-73
2022/10/11 09:52:21;;;;;;;6.75;1.57;;;;;;;15.00;69.90;101495.48;1680866;84;21007;-73
2022/10/11 09:54:59;;;;;;;9.28;1.82;;;;;;;15.18;69.81;101493.89;1682534;84;21031;-77
2022/10/11 09:57:34;;;;;;;8.90;1.60;;;;;;;15.42;69.66;101498.69;1695775;84;21390;-73
2022/10/11 10:00:21;;;;;;;7.65;1.35;;;;;;;15.72;69.56;101494.45;1656468;85;21575;-73
2022/10/11 10:02:56;;;;;;;5.97;1.90;;;;;;;15.92;68.32;101489.18;1653403;85;21058;-71
2022/10/11 10:05:28;;;;;;;10.38;1.80;;;;;;;16.20;67.65;101496.80;1670204;84;21011;-74
2022/10/11 10:08:09;;;;;;;5.55;1.30;;;;;;;16.53;67.49;101492.75;1684953;83;21033;-73
2022/10/11 10:10:45;;;;;;;5.55;1.27;;;;;;;16.88;66.53;101492.05;1680733;84;21158;-73
2022/10/11 10:13:26;;;;;;;5.62;1.40;;;;;;;17.20;65.51;101491.48;1681184;84;21497;-73
2022/10/11 10:16:00;;;;;;;8.38;1.50;;;;;;;17.52;65.19;101489.95;1681800;84;21492;-77
2022/10/11 10:18:58;;;;;;;5.75;1.60;;;;;;;17.76;64.23;101489.18;1682147;84;21035;-73
2022/10/11 10:21:32;;;;;;;5.78;1.65;;;;;;;17.87;63.35;101501.47;1671815;84;21097;-74
2022/10/11 10:24:10;;;;;;;4.03;1.30;;;;;;;17.95;62.71;101498.44;1695054;84;21518;-73
2022/10/11 10:26:38;;;;;;;6.65;1.37;;;;;;;18.13;62.15;101496.19;1691357;83;21079;-72
2022/10/11 10:29:15;;;;;;;6.97;1.57;;;;;;;18.28;61.60;101491.40;1694114;83;21064;-73
2022/10/11 10:31:53;;;;;;;6.17;1.70;;;;;;;18.49;61.43;101496.55;1693190;83;21538;-72
2022/10/11 10:34:30;;;;;;;6.83;1.32;;;;;;;18.86;61.17;101491.94;1693532;83;21067;-72
2022/10/11 10:37:02;;;;;;;5.80;1.42;;;;;;;19.17;60.33;101489.77;1693144;83;21585;-72
2022/10/11 10:39:41;;;;;;;7.08;1.40;;;;;;;19.32;59.41;101492.06;1693133;83;22392;-73
2022/10/11 10:42:15;;;;;;;6.45;1.55;;;;;;;19.44;58.40;101486.04;1693903;83;21519;-73
2022/10/11 10:44:45;;;;;;;6.42;1.52;;;;;;;19.22;57.53;101488.20;1693120;83;21625;-73
2022/10/11 10:47:21;;;;;;;;;;;;;;;18.79;57.34;101487.45;1673118;83;21066;-72
2022/10/11 10:49:59;;;;;;;7.12;1.75;;;;;;;18.73;56.59;101488.60;1674599;84;22046;-74
2022/10/11 10:52:43;;;;;;;6.85;2.30;;;;;;;18.86;57.01;101494.59;1670734;83;21059;-72
2022/10/11 10:55:18;;;;;;;7.37;3.00;;;;;;;19.14;57.12;101497.44;1692848;83;21079;-71
2022/10/11 10:58:09;;;;;;;5.83;2.05;;;;;;;19.37;56.83;101493.97;1687320;83;21045;-72
2022/10/11 11:00:39;;;;;;;7.62;3.08;;;;;;;19.64;56.06;101500.00;1685493;84;21029;-72
2022/10/11 11:03:23;;;;;;;7.37;3.15;;;;;;;19.80;55.57;101493.73;1675575;84;21452;-72
2022/10/11 11:06:07;;;;;;;11.18;3.95;;;;;;;19.89;54.62;101497.66;1658632;85;21586;-73
2022/10/11 11:09:12;;;;;;;9.43;3.67;;;;;;;19.92;54.52;101494.80;1694029;83;21040;-72
2022/10/11 11:12:17;;;;;;;7.53;3.02;;;;;;;20.06;53.66;101492.66;1693776;83;21075;-73
2022/10/11 11:15:05;;;;;;;6.62;2.00;;;;;;;20.30;53.53;101494.81;1693026;83;21489;-73
2022/10/11 11:17:58;;;;;;;5.90;1.30;;;;;;;20.57;53.20;101491.84;1693032;83;21311;-72
2022/10/11 11:21:05;;;;;;;4.40;1.20;;;;;;;20.76;52.58;101484.89;1673117;83;21073;-72
2022/10/11 11:23:53;;;;;;;10.43;1.90;;;;;;;21.08;52.64;101484.65;1657560;85;21560;-72
2022/10/11 11:26:43;;;;;;;5.28;1.52;;;;;;;21.30;51.75;101484.97;1630553;87;21062;-75
2022/10/11 11:29:18;;;;;;;12.13;2.17;;;;;;;21.43;51.12;101482.89;1583268;88;21153;-75
2022/10/11 11:32:17;;;;;;;5.80;1.85;;;;;;;21.57;51.00;101489.50;1572247;89;21930;-74
2022/10/11 11:34:52;;;;;;;5.72;1.75;;;;;;;21.73;50.67;101483.53;1576859;89;21045;-75
2022/10/11 11:37:36;;;;;;;5.90;1.62;;;;;;;21.92;50.20;101490.28;1571632;90;21605;-76
2022/10/11 11:40:21;;;;;;;6.90;1.62;;;;;;;21.54;49.22;101495.05;1611056;88;21085;-74
2022/10/11 11:42:52;;;;;;;5.53;1.20;;;;;;;20.83;48.60;101487.53;1570813;90;21076;-74
2022/10/11 11:45:28;;;;;;;5.03;1.42;;;;;;;20.67;48.70;101492.11;1609823;88;21124;-74
2022/10/11 11:48:04;;;;;;;6.45;1.85;;;;;;;20.69;48.56;101484.87;1571940;90;21584;-74
2022/10/11 11:50:41;;;;;;;5.92;1.40;;;;;;;20.97;48.74;101489.33;1609702;88;21030;-74
2022/10/11 11:53:22;;;;;;;4.40;1.80;;;;;;;21.29;48.68;101485.94;1573340;90;21010;-74